sensor_id;sensor_type;location;lat;lon;timestamp;P1;durP1;ratioP1;P2;durP2;ratioP2
79023;SDS011;70306;44.764;37.688;2024-03-22T00:01:24;23.45;;;13.55;;
79023;SDS011;70306;44.764;37.688;2024-03-22T00:02:46;21.63;;;13.07;;
79023;SDS011;70306;44.764;37.688;2024-03-22T00:03:48;20.73;;;12.98;;
79023;SDS011;70306;44.764;37.688;2024-03-22T00:04:50;23.88;;;14.40;;
79023;SDS011;70306;44.764;37.688;2024-03-22T00:05:53;25.02;;;15.27;;
79023;SDS011;70306;44.764;37.688;2024-03-22T00:06:59;25.55;;;14.65;;
79023;SDS011;70306;44.764;37.688;2024-03-22T00:08:02;31.17;;;16.10;;
79023;SDS011;70306;44.764;37.688;2024-03-22T00:09:05;25.25;;;15.20;;
79023;SDS011;70306;44.764;37.688;2024-03-22T00:10:07;22.92;;;14.75;;
79023;SDS011;70306;44.764;37.688;2024-03-22T00:11:09;19.08;;;12.77;;
79023;SDS011;70306;44.764;37.688;2024-03-22T00:12:11;27.23;;;15.00;;
79023;SDS011;70306;44.764;37.688;2024-03-22T00:13:14;25.50;;;15.75;;
79023;SDS011;70306;44.764;37.688;2024-03-22T00:14:17;35.08;;;15.88;;
79023;SDS011;70306;44.764;37.688;2024-03-22T00:15:20;27.73;;;16.35;;
79023;SDS011;70306;44.764;37.688;2024-03-22T00:16:50;22.67;;;14.55;;
79023;SDS011;70306;44.764;37.688;2024-03-22T00:17:52;24.10;;;15.68;;
79023;SDS011;70306;44.764;37.688;2024-03-22T00:18:57;27.30;;;16.02;;
79023;SDS011;70306;44.764;37.688;2024-03-22T00:20:01;24.05;;;14.40;;
79023;SDS011;70306;44.764;37.688;2024-03-22T00:21:05;23.30;;;14.93;;
79023;SDS011;70306;44.764;37.688;2024-03-22T00:22:07;25.15;;;17.00;;
79023;SDS011;70306;44.764;37.688;2024-03-22T00:23:13;24.23;;;16.30;;
79023;SDS011;70306;44.764;37.688;2024-03-22T00:24:15;28.20;;;15.73;;
79023;SDS011;70306;44.764;37.688;2024-03-22T00:25:17;23.80;;;15.65;;
79023;SDS011;70306;44.764;37.688;2024-03-22T00:26:21;29.30;;;18.75;;
79023;SDS011;70306;44.764;37.688;2024-03-22T00:27:50;27.30;;;15.18;;
79023;SDS011;70306;44.764;37.688;2024-03-22T00:28:53;30.52;;;16.35;;
79023;SDS011;70306;44.764;37.688;2024-03-22T00:30:59;20.10;;;12.60;;
79023;SDS011;70306;44.764;37.688;2024-03-22T00:32:01;23.48;;;13.15;;
79023;SDS011;70306;44.764;37.688;2024-03-22T00:33:04;19.55;;;13.32;;
79023;SDS011;70306;44.764;37.688;2024-03-22T00:34:06;19.02;;;12.38;;
79023;SDS011;70306;44.764;37.688;2024-03-22T00:35:08;19.63;;;12.98;;
79023;SDS011;70306;44.764;37.688;2024-03-22T00:36:10;21.77;;;14.63;;
79023;SDS011;70306;44.764;37.688;2024-03-22T00:37:12;29.95;;;16.20;;
79023;SDS011;70306;44.764;37.688;2024-03-22T00:38:14;27.33;;;15.90;;
79023;SDS011;70306;44.764;37.688;2024-03-22T00:39:36;26.08;;;13.43;;
79023;SDS011;70306;44.764;37.688;2024-03-22T00:40:39;20.33;;;13.90;;
79023;SDS011;70306;44.764;37.688;2024-03-22T00:41:41;26.33;;;15.50;;
79023;SDS011;70306;44.764;37.688;2024-03-22T00:42:43;22.65;;;16.13;;
79023;SDS011;70306;44.764;37.688;2024-03-22T00:45:02;22.90;;;13.45;;
79023;SDS011;70306;44.764;37.688;2024-03-22T00:46:05;25.27;;;15.88;;
79023;SDS011;70306;44.764;37.688;2024-03-22T00:48:19;21.83;;;13.65;;
79023;SDS011;70306;44.764;37.688;2024-03-22T00:49:21;22.25;;;14.43;;
79023;SDS011;70306;44.764;37.688;2024-03-22T00:50:24;17.83;;;11.88;;
79023;SDS011;70306;44.764;37.688;2024-03-22T00:51:26;18.70;;;11.90;;
79023;SDS011;70306;44.764;37.688;2024-03-22T00:52:28;20.40;;;12.68;;
79023;SDS011;70306;44.764;37.688;2024-03-22T00:53:30;19.92;;;13.07;;
79023;SDS011;70306;44.764;37.688;2024-03-22T00:54:32;20.52;;;14.20;;
79023;SDS011;70306;44.764;37.688;2024-03-22T00:55:34;22.80;;;13.95;;
79023;SDS011;70306;44.764;37.688;2024-03-22T00:56:36;20.00;;;13.05;;
79023;SDS011;70306;44.764;37.688;2024-03-22T00:57:40;17.83;;;11.93;;
79023;SDS011;70306;44.764;37.688;2024-03-22T00:58:42;22.25;;;13.05;;
79023;SDS011;70306;44.764;37.688;2024-03-22T01:00:05;18.35;;;10.88;;
79023;SDS011;70306;44.764;37.688;2024-03-22T01:01:08;19.00;;;11.10;;
79023;SDS011;70306;44.764;37.688;2024-03-22T01:02:31;17.58;;;10.60;;
79023;SDS011;70306;44.764;37.688;2024-03-22T01:03:33;23.83;;;11.48;;
79023;SDS011;70306;44.764;37.688;2024-03-22T01:04:35;19.83;;;12.20;;
79023;SDS011;70306;44.764;37.688;2024-03-22T01:05:37;16.23;;;11.25;;
79023;SDS011;70306;44.764;37.688;2024-03-22T01:06:39;17.67;;;12.77;;
79023;SDS011;70306;44.764;37.688;2024-03-22T01:07:41;15.45;;;11.23;;
79023;SDS011;70306;44.764;37.688;2024-03-22T01:08:43;20.38;;;11.48;;
79023;SDS011;70306;44.764;37.688;2024-03-22T01:09:45;18.10;;;10.63;;
79023;SDS011;70306;44.764;37.688;2024-03-22T01:10:48;21.65;;;12.63;;
79023;SDS011;70306;44.764;37.688;2024-03-22T01:11:51;15.43;;;10.73;;
79023;SDS011;70306;44.764;37.688;2024-03-22T01:12:53;15.00;;;10.57;;
79023;SDS011;70306;44.764;37.688;2024-03-22T01:13:55;20.70;;;12.13;;
79023;SDS011;70306;44.764;37.688;2024-03-22T01:14:58;21.95;;;12.18;;
79023;SDS011;70306;44.764;37.688;2024-03-22T01:16:20;21.65;;;12.40;;
79023;SDS011;70306;44.764;37.688;2024-03-22T01:17:22;20.25;;;11.70;;
79023;SDS011;70306;44.764;37.688;2024-03-22T01:18:24;22.83;;;12.55;;
79023;SDS011;70306;44.764;37.688;2024-03-22T01:19:26;22.25;;;13.55;;
79023;SDS011;70306;44.764;37.688;2024-03-22T01:20:29;21.38;;;12.35;;
79023;SDS011;70306;44.764;37.688;2024-03-22T01:21:31;16.55;;;12.23;;
79023;SDS011;70306;44.764;37.688;2024-03-22T01:22:33;25.85;;;13.18;;
79023;SDS011;70306;44.764;37.688;2024-03-22T01:23:35;16.00;;;11.73;;
79023;SDS011;70306;44.764;37.688;2024-03-22T01:24:37;28.80;;;15.43;;
79023;SDS011;70306;44.764;37.688;2024-03-22T01:25:39;22.35;;;14.15;;
79023;SDS011;70306;44.764;37.688;2024-03-22T01:26:41;21.23;;;14.95;;
79023;SDS011;70306;44.764;37.688;2024-03-22T01:27:44;19.95;;;12.20;;
79023;SDS011;70306;44.764;37.688;2024-03-22T01:28:46;21.30;;;12.68;;
79023;SDS011;70306;44.764;37.688;2024-03-22T01:29:49;23.77;;;14.40;;
79023;SDS011;70306;44.764;37.688;2024-03-22T01:30:51;19.58;;;13.27;;
79023;SDS011;70306;44.764;37.688;2024-03-22T01:31:53;18.35;;;12.45;;
79023;SDS011;70306;44.764;37.688;2024-03-22T01:32:55;23.35;;;13.77;;
79023;SDS011;70306;44.764;37.688;2024-03-22T01:33:58;17.83;;;11.60;;
79023;SDS011;70306;44.764;37.688;2024-03-22T01:35:00;24.80;;;13.95;;
79023;SDS011;70306;44.764;37.688;2024-03-22T01:36:02;20.83;;;13.95;;
79023;SDS011;70306;44.764;37.688;2024-03-22T01:37:06;20.50;;;12.60;;
79023;SDS011;70306;44.764;37.688;2024-03-22T01:38:28;16.35;;;11.10;;
79023;SDS011;70306;44.764;37.688;2024-03-22T01:39:34;24.20;;;14.13;;
79023;SDS011;70306;44.764;37.688;2024-03-22T01:40:36;28.75;;;14.45;;
79023;SDS011;70306;44.764;37.688;2024-03-22T01:41:39;19.42;;;12.48;;
79023;SDS011;70306;44.764;37.688;2024-03-22T01:43:01;21.33;;;13.73;;
79023;SDS011;70306;44.764;37.688;2024-03-22T01:44:03;24.42;;;13.95;;
79023;SDS011;70306;44.764;37.688;2024-03-22T01:45:05;16.88;;;11.98;;
79023;SDS011;70306;44.764;37.688;2024-03-22T01:46:08;21.50;;;13.50;;
79023;SDS011;70306;44.764;37.688;2024-03-22T01:47:30;22.15;;;12.88;;
79023;SDS011;70306;44.764;37.688;2024-03-22T01:48:53;23.25;;;14.82;;
79023;SDS011;70306;44.764;37.688;2024-03-22T01:49:55;21.00;;;13.60;;
79023;SDS011;70306;44.764;37.688;2024-03-22T01:50:58;24.42;;;15.00;;
79023;SDS011;70306;44.764;37.688;2024-03-22T01:52:34;20.52;;;12.10;;
79023;SDS011;70306;44.764;37.688;2024-03-22T01:53:38;21.17;;;13.95;;
79023;SDS011;70306;44.764;37.688;2024-03-22T01:54:40;22.30;;;13.07;;
79023;SDS011;70306;44.764;37.688;2024-03-22T01:55:42;23.80;;;15.23;;
79023;SDS011;70306;44.764;37.688;2024-03-22T01:56:44;22.63;;;14.60;;
79023;SDS011;70306;44.764;37.688;2024-03-22T01:58:30;21.60;;;12.13;;
79023;SDS011;70306;44.764;37.688;2024-03-22T01:59:34;21.27;;;13.88;;
79023;SDS011;70306;44.764;37.688;2024-03-22T02:00:56;17.05;;;11.43;;
79023;SDS011;70306;44.764;37.688;2024-03-22T02:01:58;16.38;;;11.18;;
79023;SDS011;70306;44.764;37.688;2024-03-22T02:03:04;25.65;;;13.60;;
79023;SDS011;70306;44.764;37.688;2024-03-22T02:04:06;22.80;;;13.77;;
79023;SDS011;70306;44.764;37.688;2024-03-22T02:05:15;27.55;;;14.10;;
79023;SDS011;70306;44.764;37.688;2024-03-22T02:06:20;26.58;;;13.77;;
79023;SDS011;70306;44.764;37.688;2024-03-22T02:07:23;22.88;;;13.65;;
79023;SDS011;70306;44.764;37.688;2024-03-22T02:08:25;15.35;;;11.00;;
79023;SDS011;70306;44.764;37.688;2024-03-22T02:09:27;17.58;;;12.07;;
79023;SDS011;70306;44.764;37.688;2024-03-22T02:10:29;24.85;;;13.10;;
79023;SDS011;70306;44.764;37.688;2024-03-22T02:11:32;17.58;;;11.60;;
79023;SDS011;70306;44.764;37.688;2024-03-22T02:12:34;19.27;;;12.27;;
79023;SDS011;70306;44.764;37.688;2024-03-22T02:13:36;25.30;;;11.82;;
79023;SDS011;70306;44.764;37.688;2024-03-22T02:14:38;16.85;;;10.75;;
79023;SDS011;70306;44.764;37.688;2024-03-22T02:15:40;14.95;;;10.02;;
79023;SDS011;70306;44.764;37.688;2024-03-22T02:16:42;15.70;;;11.90;;
79023;SDS011;70306;44.764;37.688;2024-03-22T02:17:45;18.52;;;12.57;;
79023;SDS011;70306;44.764;37.688;2024-03-22T02:18:49;19.17;;;11.52;;
79023;SDS011;70306;44.764;37.688;2024-03-22T02:19:51;24.40;;;12.23;;
79023;SDS011;70306;44.764;37.688;2024-03-22T02:21:16;14.55;;;10.73;;
79023;SDS011;70306;44.764;37.688;2024-03-22T02:22:59;47.70;;;15.50;;
79023;SDS011;70306;44.764;37.688;2024-03-22T02:24:02;14.05;;;9.75;;
79023;SDS011;70306;44.764;37.688;2024-03-22T02:25:04;18.65;;;10.63;;
79023;SDS011;70306;44.764;37.688;2024-03-22T02:26:09;20.40;;;10.55;;
79023;SDS011;70306;44.764;37.688;2024-03-22T02:27:12;16.50;;;10.30;;
79023;SDS011;70306;44.764;37.688;2024-03-22T02:28:14;17.55;;;11.15;;
79023;SDS011;70306;44.764;37.688;2024-03-22T02:29:18;20.20;;;11.32;;
79023;SDS011;70306;44.764;37.688;2024-03-22T02:30:21;20.17;;;13.52;;
79023;SDS011;70306;44.764;37.688;2024-03-22T02:31:23;23.05;;;12.02;;
79023;SDS011;70306;44.764;37.688;2024-03-22T02:32:26;19.00;;;11.80;;
79023;SDS011;70306;44.764;37.688;2024-03-22T02:33:29;19.40;;;12.23;;
79023;SDS011;70306;44.764;37.688;2024-03-22T02:36:17;22.27;;;11.73;;
79023;SDS011;70306;44.764;37.688;2024-03-22T02:37:19;17.30;;;11.27;;
79023;SDS011;70306;44.764;37.688;2024-03-22T02:38:21;23.98;;;13.65;;
79023;SDS011;70306;44.764;37.688;2024-03-22T02:39:24;74.25;;;19.00;;
79023;SDS011;70306;44.764;37.688;2024-03-22T02:40:26;20.33;;;12.10;;
79023;SDS011;70306;44.764;37.688;2024-03-22T02:41:49;20.48;;;11.15;;
79023;SDS011;70306;44.764;37.688;2024-03-22T02:43:11;17.42;;;11.60;;
79023;SDS011;70306;44.764;37.688;2024-03-22T02:44:35;23.83;;;13.27;;
79023;SDS011;70306;44.764;37.688;2024-03-22T02:45:39;26.13;;;14.88;;
79023;SDS011;70306;44.764;37.688;2024-03-22T02:46:42;27.92;;;14.35;;
79023;SDS011;70306;44.764;37.688;2024-03-22T02:49:20;25.92;;;14.95;;
79023;SDS011;70306;44.764;37.688;2024-03-22T02:50:22;42.58;;;16.10;;
79023;SDS011;70306;44.764;37.688;2024-03-22T02:51:24;29.95;;;14.52;;
79023;SDS011;70306;44.764;37.688;2024-03-22T02:52:26;25.27;;;14.05;;
79023;SDS011;70306;44.764;37.688;2024-03-22T02:53:28;42.28;;;17.10;;
79023;SDS011;70306;44.764;37.688;2024-03-22T02:54:30;27.48;;;14.27;;
79023;SDS011;70306;44.764;37.688;2024-03-22T02:55:36;30.45;;;15.40;;
79023;SDS011;70306;44.764;37.688;2024-03-22T02:56:41;23.88;;;15.05;;
79023;SDS011;70306;44.764;37.688;2024-03-22T02:57:44;24.75;;;15.80;;
79023;SDS011;70306;44.764;37.688;2024-03-22T02:58:46;27.92;;;14.82;;
79023;SDS011;70306;44.764;37.688;2024-03-22T02:59:48;22.38;;;14.60;;
79023;SDS011;70306;44.764;37.688;2024-03-22T03:01:11;33.17;;;16.17;;
79023;SDS011;70306;44.764;37.688;2024-03-22T03:02:13;38.53;;;16.63;;
79023;SDS011;70306;44.764;37.688;2024-03-22T03:04:26;26.00;;;14.40;;
79023;SDS011;70306;44.764;37.688;2024-03-22T03:05:28;58.85;;;17.55;;
79023;SDS011;70306;44.764;37.688;2024-03-22T03:06:30;33.92;;;15.82;;
79023;SDS011;70306;44.764;37.688;2024-03-22T03:07:56;23.73;;;13.82;;
79023;SDS011;70306;44.764;37.688;2024-03-22T03:09:19;36.05;;;15.00;;
79023;SDS011;70306;44.764;37.688;2024-03-22T03:10:21;25.17;;;14.20;;
79023;SDS011;70306;44.764;37.688;2024-03-22T03:11:24;22.20;;;14.38;;
79023;SDS011;70306;44.764;37.688;2024-03-22T03:12:26;22.00;;;13.63;;
79023;SDS011;70306;44.764;37.688;2024-03-22T03:13:28;35.33;;;15.02;;
79023;SDS011;70306;44.764;37.688;2024-03-22T03:14:31;26.33;;;13.70;;
79023;SDS011;70306;44.764;37.688;2024-03-22T03:15:33;17.05;;;10.68;;
79023;SDS011;70306;44.764;37.688;2024-03-22T03:16:35;19.92;;;13.98;;
79023;SDS011;70306;44.764;37.688;2024-03-22T03:17:37;51.83;;;16.67;;
79023;SDS011;70306;44.764;37.688;2024-03-22T03:18:45;50.10;;;16.10;;
79023;SDS011;70306;44.764;37.688;2024-03-22T03:19:47;28.98;;;14.15;;
79023;SDS011;70306;44.764;37.688;2024-03-22T03:20:49;19.67;;;11.65;;
79023;SDS011;70306;44.764;37.688;2024-03-22T03:22:12;23.23;;;11.75;;
79023;SDS011;70306;44.764;37.688;2024-03-22T03:23:14;22.80;;;12.70;;
79023;SDS011;70306;44.764;37.688;2024-03-22T03:24:16;26.85;;;10.60;;
79023;SDS011;70306;44.764;37.688;2024-03-22T03:25:19;21.77;;;12.68;;
79023;SDS011;70306;44.764;37.688;2024-03-22T03:26:21;34.20;;;13.05;;
79023;SDS011;70306;44.764;37.688;2024-03-22T03:27:23;25.45;;;14.63;;
79023;SDS011;70306;44.764;37.688;2024-03-22T03:28:45;27.33;;;13.10;;
79023;SDS011;70306;44.764;37.688;2024-03-22T03:29:47;24.52;;;14.10;;
79023;SDS011;70306;44.764;37.688;2024-03-22T03:30:49;19.08;;;13.43;;
79023;SDS011;70306;44.764;37.688;2024-03-22T03:31:51;15.30;;;10.80;;
79023;SDS011;70306;44.764;37.688;2024-03-22T03:32:54;26.77;;;14.30;;
79023;SDS011;70306;44.764;37.688;2024-03-22T03:33:56;22.08;;;13.98;;
79023;SDS011;70306;44.764;37.688;2024-03-22T03:34:58;21.27;;;13.38;;
79023;SDS011;70306;44.764;37.688;2024-03-22T03:36:00;20.77;;;11.90;;
79023;SDS011;70306;44.764;37.688;2024-03-22T03:37:02;17.95;;;10.73;;
79023;SDS011;70306;44.764;37.688;2024-03-22T03:38:05;19.45;;;13.57;;
79023;SDS011;70306;44.764;37.688;2024-03-22T03:39:07;18.45;;;11.82;;
79023;SDS011;70306;44.764;37.688;2024-03-22T03:40:09;23.60;;;13.32;;
79023;SDS011;70306;44.764;37.688;2024-03-22T03:41:12;20.15;;;12.63;;
79023;SDS011;70306;44.764;37.688;2024-03-22T03:42:14;19.90;;;11.35;;
79023;SDS011;70306;44.764;37.688;2024-03-22T03:43:16;19.92;;;12.75;;
79023;SDS011;70306;44.764;37.688;2024-03-22T03:44:18;18.02;;;11.15;;
79023;SDS011;70306;44.764;37.688;2024-03-22T03:45:21;20.80;;;13.15;;
79023;SDS011;70306;44.764;37.688;2024-03-22T03:46:23;22.15;;;12.13;;
79023;SDS011;70306;44.764;37.688;2024-03-22T03:47:25;14.80;;;9.90;;
79023;SDS011;70306;44.764;37.688;2024-03-22T03:48:27;20.30;;;12.38;;
79023;SDS011;70306;44.764;37.688;2024-03-22T03:49:30;22.45;;;13.80;;
79023;SDS011;70306;44.764;37.688;2024-03-22T03:50:32;24.67;;;13.70;;
79023;SDS011;70306;44.764;37.688;2024-03-22T03:51:34;18.85;;;11.90;;
79023;SDS011;70306;44.764;37.688;2024-03-22T03:52:36;29.17;;;11.30;;
79023;SDS011;70306;44.764;37.688;2024-03-22T03:53:38;18.77;;;11.85;;
79023;SDS011;70306;44.764;37.688;2024-03-22T03:54:40;26.13;;;14.60;;
79023;SDS011;70306;44.764;37.688;2024-03-22T03:55:43;16.40;;;10.05;;
79023;SDS011;70306;44.764;37.688;2024-03-22T03:56:45;21.35;;;12.77;;
79023;SDS011;70306;44.764;37.688;2024-03-22T03:57:47;17.77;;;12.40;;
79023;SDS011;70306;44.764;37.688;2024-03-22T03:58:51;20.52;;;12.30;;
79023;SDS011;70306;44.764;37.688;2024-03-22T03:59:56;33.05;;;12.88;;
79023;SDS011;70306;44.764;37.688;2024-03-22T04:00:58;36.67;;;14.32;;
79023;SDS011;70306;44.764;37.688;2024-03-22T04:02:00;19.95;;;13.35;;
79023;SDS011;70306;44.764;37.688;2024-03-22T04:03:03;17.42;;;12.43;;
79023;SDS011;70306;44.764;37.688;2024-03-22T04:04:05;26.92;;;16.05;;
79023;SDS011;70306;44.764;37.688;2024-03-22T04:05:07;21.23;;;13.18;;
79023;SDS011;70306;44.764;37.688;2024-03-22T04:06:09;19.40;;;13.35;;
79023;SDS011;70306;44.764;37.688;2024-03-22T04:07:12;22.65;;;13.48;;
79023;SDS011;70306;44.764;37.688;2024-03-22T04:08:14;22.65;;;10.30;;
79023;SDS011;70306;44.764;37.688;2024-03-22T04:09:16;22.42;;;11.32;;
79023;SDS011;70306;44.764;37.688;2024-03-22T04:10:18;58.30;;;11.82;;
79023;SDS011;70306;44.764;37.688;2024-03-22T04:11:20;18.98;;;10.25;;
79023;SDS011;70306;44.764;37.688;2024-03-22T04:12:23;18.13;;;11.15;;
79023;SDS011;70306;44.764;37.688;2024-03-22T04:13:25;15.77;;;10.35;;
79023;SDS011;70306;44.764;37.688;2024-03-22T04:14:49;12.88;;;9.10;;
79023;SDS011;70306;44.764;37.688;2024-03-22T04:15:51;14.45;;;9.88;;
79023;SDS011;70306;44.764;37.688;2024-03-22T04:16:53;13.13;;;7.50;;
79023;SDS011;70306;44.764;37.688;2024-03-22T04:17:57;17.63;;;10.45;;
79023;SDS011;70306;44.764;37.688;2024-03-22T04:18:59;16.55;;;8.27;;
79023;SDS011;70306;44.764;37.688;2024-03-22T04:20:01;11.23;;;6.63;;
79023;SDS011;70306;44.764;37.688;2024-03-22T04:21:05;13.10;;;9.05;;
79023;SDS011;70306;44.764;37.688;2024-03-22T04:22:07;16.63;;;8.73;;
79023;SDS011;70306;44.764;37.688;2024-03-22T04:23:10;13.80;;;8.35;;
79023;SDS011;70306;44.764;37.688;2024-03-22T04:24:12;13.07;;;8.60;;
79023;SDS011;70306;44.764;37.688;2024-03-22T04:25:15;15.05;;;9.10;;
79023;SDS011;70306;44.764;37.688;2024-03-22T04:26:17;14.88;;;9.35;;
79023;SDS011;70306;44.764;37.688;2024-03-22T04:27:25;10.45;;;7.95;;
79023;SDS011;70306;44.764;37.688;2024-03-22T04:28:27;13.88;;;8.90;;
79023;SDS011;70306;44.764;37.688;2024-03-22T04:29:31;11.13;;;8.38;;
79023;SDS011;70306;44.764;37.688;2024-03-22T04:30:33;15.98;;;8.73;;
79023;SDS011;70306;44.764;37.688;2024-03-22T04:31:36;20.65;;;9.13;;
79023;SDS011;70306;44.764;37.688;2024-03-22T04:32:38;10.98;;;8.75;;
79023;SDS011;70306;44.764;37.688;2024-03-22T04:33:40;19.65;;;9.75;;
79023;SDS011;70306;44.764;37.688;2024-03-22T04:34:42;12.30;;;9.02;;
79023;SDS011;70306;44.764;37.688;2024-03-22T04:35:47;14.73;;;8.90;;
79023;SDS011;70306;44.764;37.688;2024-03-22T04:36:50;11.68;;;8.07;;
79023;SDS011;70306;44.764;37.688;2024-03-22T04:37:53;16.75;;;10.40;;
79023;SDS011;70306;44.764;37.688;2024-03-22T04:38:56;12.73;;;8.43;;
79023;SDS011;70306;44.764;37.688;2024-03-22T04:39:59;12.65;;;8.77;;
79023;SDS011;70306;44.764;37.688;2024-03-22T04:41:01;13.80;;;11.20;;
79023;SDS011;70306;44.764;37.688;2024-03-22T04:42:03;13.13;;;7.85;;
79023;SDS011;70306;44.764;37.688;2024-03-22T04:43:06;15.15;;;9.60;;
79023;SDS011;70306;44.764;37.688;2024-03-22T04:44:08;14.20;;;10.05;;
79023;SDS011;70306;44.764;37.688;2024-03-22T04:45:10;14.18;;;9.25;;
79023;SDS011;70306;44.764;37.688;2024-03-22T04:46:12;13.57;;;8.55;;
79023;SDS011;70306;44.764;37.688;2024-03-22T04:47:15;14.77;;;8.50;;
79023;SDS011;70306;44.764;37.688;2024-03-22T04:48:18;11.15;;;8.48;;
79023;SDS011;70306;44.764;37.688;2024-03-22T04:49:22;13.65;;;10.05;;
79023;SDS011;70306;44.764;37.688;2024-03-22T04:50:24;12.05;;;8.35;;
79023;SDS011;70306;44.764;37.688;2024-03-22T04:51:26;13.05;;;9.13;;
79023;SDS011;70306;44.764;37.688;2024-03-22T04:52:28;12.25;;;8.45;;
79023;SDS011;70306;44.764;37.688;2024-03-22T04:53:30;11.90;;;7.40;;
79023;SDS011;70306;44.764;37.688;2024-03-22T04:54:32;11.57;;;9.40;;
79023;SDS011;70306;44.764;37.688;2024-03-22T04:55:35;11.68;;;7.60;;
79023;SDS011;70306;44.764;37.688;2024-03-22T04:56:37;12.70;;;9.15;;
79023;SDS011;70306;44.764;37.688;2024-03-22T04:57:39;10.90;;;8.45;;
79023;SDS011;70306;44.764;37.688;2024-03-22T04:58:41;17.42;;;8.52;;
79023;SDS011;70306;44.764;37.688;2024-03-22T04:59:43;13.02;;;9.23;;
79023;SDS011;70306;44.764;37.688;2024-03-22T05:00:45;14.35;;;8.73;;
79023;SDS011;70306;44.764;37.688;2024-03-22T05:01:48;13.40;;;8.95;;
79023;SDS011;70306;44.764;37.688;2024-03-22T05:02:50;13.07;;;8.38;;
79023;SDS011;70306;44.764;37.688;2024-03-22T05:03:54;16.70;;;10.55;;
79023;SDS011;70306;44.764;37.688;2024-03-22T05:04:57;14.70;;;10.60;;
79023;SDS011;70306;44.764;37.688;2024-03-22T05:05:59;16.13;;;10.15;;
79023;SDS011;70306;44.764;37.688;2024-03-22T05:07:04;15.77;;;10.52;;
79023;SDS011;70306;44.764;37.688;2024-03-22T05:08:07;15.73;;;8.30;;
79023;SDS011;70306;44.764;37.688;2024-03-22T05:09:10;13.57;;;8.60;;
79023;SDS011;70306;44.764;37.688;2024-03-22T05:10:12;13.50;;;9.48;;
79023;SDS011;70306;44.764;37.688;2024-03-22T05:11:14;12.90;;;9.45;;
79023;SDS011;70306;44.764;37.688;2024-03-22T05:12:16;13.13;;;8.65;;
79023;SDS011;70306;44.764;37.688;2024-03-22T05:13:18;16.98;;;8.88;;
79023;SDS011;70306;44.764;37.688;2024-03-22T05:14:21;12.80;;;11.32;;
79023;SDS011;70306;44.764;37.688;2024-03-22T05:15:23;15.82;;;9.73;;
79023;SDS011;70306;44.764;37.688;2024-03-22T05:16:28;14.65;;;10.43;;
79023;SDS011;70306;44.764;37.688;2024-03-22T05:17:30;12.98;;;8.90;;
79023;SDS011;70306;44.764;37.688;2024-03-22T05:18:33;13.40;;;9.40;;
79023;SDS011;70306;44.764;37.688;2024-03-22T05:19:35;14.73;;;11.32;;
79023;SDS011;70306;44.764;37.688;2024-03-22T05:20:37;9.70;;;8.07;;
79023;SDS011;70306;44.764;37.688;2024-03-22T05:21:39;14.68;;;9.32;;
79023;SDS011;70306;44.764;37.688;2024-03-22T05:22:41;11.02;;;8.73;;
79023;SDS011;70306;44.764;37.688;2024-03-22T05:23:44;13.73;;;8.93;;
79023;SDS011;70306;44.764;37.688;2024-03-22T05:24:46;15.95;;;10.20;;
79023;SDS011;70306;44.764;37.688;2024-03-22T05:25:48;11.40;;;8.57;;
79023;SDS011;70306;44.764;37.688;2024-03-22T05:26:50;12.10;;;8.52;;
79023;SDS011;70306;44.764;37.688;2024-03-22T05:27:52;10.95;;;8.15;;
79023;SDS011;70306;44.764;37.688;2024-03-22T05:28:54;9.07;;;6.68;;
79023;SDS011;70306;44.764;37.688;2024-03-22T05:29:56;11.73;;;8.30;;
79023;SDS011;70306;44.764;37.688;2024-03-22T05:30:58;14.02;;;9.02;;
79023;SDS011;70306;44.764;37.688;2024-03-22T05:32:00;12.00;;;8.45;;
79023;SDS011;70306;44.764;37.688;2024-03-22T05:33:05;12.55;;;9.75;;
79023;SDS011;70306;44.764;37.688;2024-03-22T05:34:07;12.85;;;8.73;;
79023;SDS011;70306;44.764;37.688;2024-03-22T05:35:09;14.40;;;8.45;;
79023;SDS011;70306;44.764;37.688;2024-03-22T05:36:11;12.55;;;8.43;;
79023;SDS011;70306;44.764;37.688;2024-03-22T05:37:13;10.70;;;7.78;;
79023;SDS011;70306;44.764;37.688;2024-03-22T05:38:15;13.02;;;7.90;;
79023;SDS011;70306;44.764;37.688;2024-03-22T05:39:17;11.63;;;8.95;;
79023;SDS011;70306;44.764;37.688;2024-03-22T05:40:19;13.43;;;9.70;;
79023;SDS011;70306;44.764;37.688;2024-03-22T05:41:21;12.20;;;10.13;;
79023;SDS011;70306;44.764;37.688;2024-03-22T05:42:23;11.77;;;8.38;;
79023;SDS011;70306;44.764;37.688;2024-03-22T05:43:25;12.75;;;10.38;;
79023;SDS011;70306;44.764;37.688;2024-03-22T05:44:27;14.93;;;9.30;;
79023;SDS011;70306;44.764;37.688;2024-03-22T05:45:29;14.55;;;9.18;;
79023;SDS011;70306;44.764;37.688;2024-03-22T05:46:31;11.80;;;8.65;;
79023;SDS011;70306;44.764;37.688;2024-03-22T05:47:33;12.95;;;10.93;;
79023;SDS011;70306;44.764;37.688;2024-03-22T05:48:36;12.13;;;7.28;;
79023;SDS011;70306;44.764;37.688;2024-03-22T05:49:38;13.38;;;7.32;;
79023;SDS011;70306;44.764;37.688;2024-03-22T05:50:40;11.80;;;8.55;;
79023;SDS011;70306;44.764;37.688;2024-03-22T05:51:43;10.90;;;7.85;;
79023;SDS011;70306;44.764;37.688;2024-03-22T05:52:45;12.35;;;9.10;;
79023;SDS011;70306;44.764;37.688;2024-03-22T05:53:47;9.95;;;7.63;;
79023;SDS011;70306;44.764;37.688;2024-03-22T05:54:49;8.25;;;6.75;;
79023;SDS011;70306;44.764;37.688;2024-03-22T05:55:51;12.00;;;8.85;;
79023;SDS011;70306;44.764;37.688;2024-03-22T05:56:53;9.95;;;6.93;;
79023;SDS011;70306;44.764;37.688;2024-03-22T05:57:56;9.95;;;7.45;;
79023;SDS011;70306;44.764;37.688;2024-03-22T05:58:59;10.02;;;7.78;;
79023;SDS011;70306;44.764;37.688;2024-03-22T06:00:01;12.02;;;7.88;;
79023;SDS011;70306;44.764;37.688;2024-03-22T06:01:06;6.57;;;5.65;;
79023;SDS011;70306;44.764;37.688;2024-03-22T06:02:08;8.55;;;6.70;;
79023;SDS011;70306;44.764;37.688;2024-03-22T06:03:10;7.75;;;7.05;;
79023;SDS011;70306;44.764;37.688;2024-03-22T06:04:12;9.23;;;5.65;;
79023;SDS011;70306;44.764;37.688;2024-03-22T06:05:15;9.20;;;7.53;;
79023;SDS011;70306;44.764;37.688;2024-03-22T06:06:18;7.00;;;5.93;;
79023;SDS011;70306;44.764;37.688;2024-03-22T06:07:23;7.20;;;5.95;;
79023;SDS011;70306;44.764;37.688;2024-03-22T06:08:27;8.55;;;6.13;;
79023;SDS011;70306;44.764;37.688;2024-03-22T06:09:29;6.63;;;5.32;;
79023;SDS011;70306;44.764;37.688;2024-03-22T06:10:47;8.93;;;6.30;;
79023;SDS011;70306;44.764;37.688;2024-03-22T06:11:52;8.88;;;7.68;;
79023;SDS011;70306;44.764;37.688;2024-03-22T06:12:54;8.90;;;6.30;;
79023;SDS011;70306;44.764;37.688;2024-03-22T06:13:57;9.93;;;7.28;;
79023;SDS011;70306;44.764;37.688;2024-03-22T06:14:59;8.88;;;6.93;;
79023;SDS011;70306;44.764;37.688;2024-03-22T06:16:01;8.68;;;6.65;;
79023;SDS011;70306;44.764;37.688;2024-03-22T06:17:05;6.97;;;5.22;;
79023;SDS011;70306;44.764;37.688;2024-03-22T06:18:07;6.70;;;6.03;;
79023;SDS011;70306;44.764;37.688;2024-03-22T06:19:09;6.15;;;5.38;;
79023;SDS011;70306;44.764;37.688;2024-03-22T06:20:11;7.43;;;5.18;;
79023;SDS011;70306;44.764;37.688;2024-03-22T06:21:14;7.32;;;5.28;;